createdAt,value
2023-04-22T00:00:00.775Z,10.40
2023-04-22T00:04:10.077Z,10.40
2023-04-22T00:08:19.273Z,10.30
2023-04-22T00:12:29.694Z,10.30
2023-04-22T00:16:38.602Z,10.30
2023-04-22T00:20:48.102Z,10.30
2023-04-22T00:24:57.068Z,10.30
2023-04-22T00:29:07.436Z,10.30
2023-04-22T00:33:16.551Z,10.30
2023-04-22T00:37:25.410Z,10.30
2023-04-22T00:41:35.175Z,10.40
2023-04-22T00:45:46.103Z,10.50
2023-04-22T00:49:56.194Z,10.40
2023-04-22T00:54:06.862Z,10.50
2023-04-22T00:58:16.082Z,10.50
2023-04-22T01:02:27.110Z,10.50
2023-04-22T01:06:38.376Z,10.50
2023-04-22T01:10:47.861Z,10.50
2023-04-22T01:14:57.028Z,10.60
2023-04-22T01:19:08.496Z,10.60
2023-04-22T01:23:21.813Z,10.60
2023-04-22T01:27:32.462Z,10.50
2023-04-22T01:31:41.742Z,10.60
2023-04-22T01:35:51.066Z,10.60
2023-04-22T01:40:02.078Z,10.50
2023-04-22T01:44:11.115Z,10.50
2023-04-22T01:48:20.488Z,10.70
2023-04-22T01:52:29.633Z,10.70
2023-04-22T01:56:40.854Z,10.80
2023-04-22T02:00:49.871Z,10.80
2023-04-22T02:04:59.048Z,10.90
2023-04-22T02:09:08.356Z,10.90
2023-04-22T02:13:18.844Z,10.80
2023-04-22T02:17:27.890Z,10.80
2023-04-22T02:21:36.726Z,10.70
2023-04-22T02:25:51.600Z,10.70
2023-04-22T02:30:01.998Z,10.70
2023-04-22T02:34:10.866Z,10.70
2023-04-22T02:38:20.521Z,10.60
2023-04-22T02:42:29.270Z,10.60
2023-04-22T02:46:39.731Z,10.60
2023-04-22T02:50:48.799Z,10.50
2023-04-22T02:54:57.999Z,10.40
2023-04-22T02:59:06.922Z,10.40
2023-04-22T03:03:17.477Z,10.40
2023-04-22T03:07:26.546Z,10.30
2023-04-22T03:11:35.400Z,10.40
2023-04-22T03:15:44.300Z,10.40
2023-04-22T03:19:54.536Z,10.40
2023-04-22T03:24:03.431Z,10.40
2023-04-22T03:28:12.332Z,10.40
2023-04-22T03:32:21.250Z,10.40
2023-04-22T03:36:31.631Z,10.40
2023-04-22T03:40:40.690Z,10.30
2023-04-22T03:44:49.564Z,10.40
2023-04-22T03:48:58.383Z,10.40
2023-04-22T03:53:08.846Z,10.30
2023-04-22T03:57:17.790Z,10.30
2023-04-22T04:01:26.614Z,10.30
2023-04-22T04:05:36.079Z,10.30
2023-04-22T04:09:46.542Z,10.30
2023-04-22T04:13:55.537Z,10.30
2023-04-22T04:18:04.716Z,10.20
2023-04-22T04:22:13.825Z,10.20
2023-04-22T04:26:24.311Z,10.20
2023-04-22T04:30:33.668Z,10.20
2023-04-22T04:34:43.936Z,10.20
2023-04-22T04:38:55.200Z,10.10
2023-04-22T04:43:08.919Z,10.10
2023-04-22T04:47:17.821Z,10.00
2023-04-22T04:51:26.896Z,10.10
2023-04-22T04:55:36.092Z,10.10
2023-04-22T04:59:46.469Z,10.10
2023-04-22T05:03:55.581Z,10.10
2023-04-22T05:08:05.214Z,10.10
2023-04-22T05:12:14.143Z,10.00
2023-04-22T05:16:24.789Z,10.00
2023-04-22T05:20:35.903Z,10.10
2023-04-22T05:24:45.203Z,10.10
2023-04-22T05:28:54.265Z,10.10
2023-04-22T05:33:04.720Z,10.10
2023-04-22T05:37:13.752Z,10.00
2023-04-22T05:41:22.716Z,10.10
2023-04-22T05:45:31.826Z,10.10
2023-04-22T05:49:42.462Z,10.10
2023-04-22T05:53:51.634Z,10.10
2023-04-22T05:58:00.560Z,10.10
2023-04-22T06:02:09.665Z,10.00
2023-04-22T06:06:20.288Z,10.00
2023-04-22T06:10:29.281Z,10.00
2023-04-22T06:14:38.157Z,9.90
2023-04-22T06:18:47.256Z,10.00
2023-04-22T06:22:57.646Z,10.00
2023-04-22T06:27:06.659Z,10.10
2023-04-22T06:31:15.657Z,10.30
2023-04-22T06:35:24.803Z,10.40
2023-04-22T06:39:35.303Z,10.50
2023-04-22T06:43:44.191Z,10.50
2023-04-22T06:47:54.994Z,10.70
2023-04-22T06:52:03.906Z,10.90
2023-04-22T06:56:14.302Z,11.10
2023-04-22T07:00:23.343Z,11.30
2023-04-22T07:04:32.234Z,11.50
2023-04-22T07:08:41.150Z,11.50
2023-04-22T07:12:51.700Z,11.70
2023-04-22T07:17:00.586Z,11.70
2023-04-22T07:21:09.552Z,11.90
2023-04-22T07:25:18.761Z,12.00
2023-04-22T07:29:29.756Z,11.90
2023-04-22T07:33:38.879Z,12.10
2023-04-22T07:37:48.073Z,12.20
2023-04-22T07:41:57.950Z,12.40
2023-04-22T07:46:08.636Z,12.50
2023-04-22T07:50:17.638Z,12.70
2023-04-22T07:54:26.757Z,12.80
2023-04-22T07:58:35.907Z,13.10
2023-04-22T08:02:47.691Z,13.20
2023-04-22T08:06:57.775Z,13.40
2023-04-22T08:11:07.479Z,13.60
2023-04-22T08:15:16.802Z,13.80
2023-04-22T08:19:29.626Z,13.90
2023-04-22T08:23:41.853Z,14.10
2023-04-22T08:27:52.746Z,14.30
2023-04-22T08:32:02.334Z,14.60
2023-04-22T08:36:14.911Z,14.70
2023-04-22T08:40:24.600Z,15.00
2023-04-22T08:44:34.201Z,15.20
2023-04-22T08:49:05.766Z,15.60
2023-04-22T08:53:18.228Z,15.80
2023-04-22T08:57:28.437Z,15.90
2023-04-22T09:01:39.302Z,15.80
2023-04-22T09:05:51.465Z,16.20
2023-04-22T09:10:02.251Z,16.40
2023-04-22T09:14:13.292Z,16.70
2023-04-22T09:18:22.874Z,17.00
2023-04-22T09:22:40.200Z,17.00
2023-04-22T09:26:50.964Z,17.00
2023-04-22T09:31:04.685Z,17.00
2023-04-22T09:35:14.561Z,16.90
2023-04-22T09:39:25.760Z,16.60
2023-04-22T09:43:37.140Z,16.10
2023-04-22T09:47:48.757Z,16.00
2023-04-22T09:51:59.563Z,16.00
2023-04-22T09:56:10.033Z,16.60
2023-04-22T10:00:21.165Z,17.20
2023-04-22T10:04:30.457Z,17.30
2023-04-22T10:08:39.921Z,17.40
2023-04-22T10:12:51.806Z,17.50
2023-04-22T10:17:04.548Z,17.60
2023-04-22T10:21:15.028Z,17.60
2023-04-22T10:25:25.821Z,17.70
2023-04-22T10:29:39.514Z,17.60
2023-04-22T10:33:50.741Z,17.30
2023-04-22T10:37:59.970Z,17.30
2023-04-22T10:42:13.713Z,17.20
2023-04-22T10:47:02.921Z,17.60
2023-04-22T10:51:40.831Z,17.60
2023-04-22T10:55:54.656Z,17.90
2023-04-22T11:00:17.794Z,18.20
2023-04-22T11:04:27.337Z,18.10
2023-04-22T11:08:38.770Z,18.00
2023-04-22T11:12:48.907Z,18.00
2023-04-22T11:16:58.124Z,17.90
2023-04-22T11:21:09.547Z,17.50
2023-04-22T11:25:20.449Z,17.40
2023-04-22T11:29:29.578Z,17.30
2023-04-22T11:33:39.490Z,17.60
2023-04-22T11:37:50.055Z,17.90
2023-04-22T11:42:00.539Z,18.10
2023-04-22T11:46:09.565Z,17.70
2023-04-22T11:50:19.863Z,17.30
2023-04-22T11:54:36.620Z,17.30
2023-04-22T11:58:47.069Z,17.40
2023-04-22T12:03:00.899Z,17.30
2023-04-22T12:07:10.308Z,17.00
2023-04-22T12:11:19.299Z,16.80
2023-04-22T12:15:39.906Z,16.50
2023-04-22T12:19:49.376Z,16.20
2023-04-22T12:24:00.656Z,16.00
2023-04-22T12:28:09.557Z,15.80
2023-04-22T12:32:19.964Z,15.60
2023-04-22T12:36:29.329Z,15.50
2023-04-22T12:40:38.270Z,15.70
2023-04-22T12:44:47.387Z,16.30
2023-04-22T12:48:57.789Z,16.50
2023-04-22T12:53:06.769Z,16.90
2023-04-22T12:57:16.041Z,17.30
2023-04-22T13:01:24.967Z,17.60
2023-04-22T13:05:35.864Z,17.90
2023-04-22T13:09:45.803Z,17.60
2023-04-22T13:13:54.607Z,17.70
2023-04-22T13:18:03.974Z,17.70
2023-04-22T13:22:14.371Z,17.50
2023-04-22T13:26:23.367Z,17.30
2023-04-22T13:30:32.227Z,17.10
2023-04-22T13:34:41.534Z,17.20
2023-04-22T13:38:52.102Z,17.20
2023-04-22T13:43:01.288Z,16.80
2023-04-22T13:47:10.366Z,17.10
2023-04-22T13:51:19.492Z,17.30
2023-04-22T13:55:30.080Z,17.30
2023-04-22T13:59:39.283Z,17.00
2023-04-22T14:03:49.497Z,16.80
2023-04-22T14:07:58.552Z,16.80
2023-04-22T14:12:10.174Z,16.80
2023-04-22T14:16:20.188Z,16.90
2023-04-22T14:20:29.298Z,16.80
2023-04-22T14:24:38.615Z,16.60
2023-04-22T14:28:49.074Z,16.70
2023-04-22T14:32:58.109Z,16.70
2023-04-22T14:37:07.239Z,16.90
2023-04-22T14:41:16.323Z,17.00
2023-04-22T14:45:27.718Z,17.00
2023-04-22T14:49:37.256Z,16.90
2023-04-22T14:53:46.390Z,16.80
2023-04-22T14:57:59.153Z,16.40
2023-04-22T15:02:16.243Z,16.10
2023-04-22T15:06:25.669Z,15.90
2023-04-22T15:10:34.755Z,15.90
2023-04-22T15:14:44.077Z,16.00
2023-04-22T15:18:55.313Z,15.90
2023-04-22T15:23:05.616Z,15.90
2023-04-22T15:27:14.880Z,15.90
2023-04-22T15:31:23.794Z,16.20
2023-04-22T15:35:34.532Z,16.30
2023-04-22T15:39:44.582Z,16.20
2023-04-22T15:43:53.846Z,16.10
2023-04-22T15:48:02.954Z,16.10
2023-04-22T15:52:13.587Z,16.00
2023-04-22T15:56:23.186Z,16.10
2023-04-22T16:00:32.224Z,16.20
2023-04-22T16:04:41.676Z,16.10
2023-04-22T16:08:52.363Z,15.90
2023-04-22T16:13:02.147Z,15.80
2023-04-22T16:17:11.459Z,15.60
2023-04-22T16:21:20.448Z,15.50
2023-04-22T16:29:56.330Z,15.50
2023-04-22T16:34:05.907Z,15.30
2023-04-22T16:38:16.146Z,15.40
2023-04-22T16:42:26.720Z,15.50
2023-04-22T16:46:40.366Z,15.30
2023-04-22T16:55:12.891Z,15.40
2023-04-22T16:59:24.673Z,15.40
2023-04-22T17:03:34.068Z,15.40
2023-04-22T17:07:43.562Z,15.30
2023-04-22T17:12:29.360Z,15.30
2023-04-22T17:16:47.220Z,15.30
2023-04-22T17:21:11.152Z,15.30
2023-04-22T17:31:08.990Z,14.90
2023-04-22T17:35:20.588Z,14.60
2023-04-22T17:39:29.617Z,14.60
2023-04-22T17:43:39.964Z,14.50
2023-04-22T17:47:49.377Z,14.40
2023-04-22T17:51:59.914Z,14.40
2023-04-22T19:25:07.617Z,13.60
2023-04-22T19:29:18.548Z,13.60
2023-04-22T19:33:31.762Z,13.50
2023-04-22T19:37:42.007Z,13.60
2023-04-22T19:47:09.628Z,13.50
2023-04-22T19:56:38.946Z,13.40
2023-04-22T20:01:13.424Z,13.50
2023-04-22T20:05:35.354Z,13.50
2023-04-22T20:10:11.763Z,13.40
2023-04-22T20:19:32.331Z,13.50
2023-04-22T20:23:50.398Z,13.50
2023-04-22T20:28:01.265Z,13.50
2023-04-22T20:32:12.970Z,13.50
2023-04-22T20:45:37.731Z,13.40
2023-04-22T20:50:04.074Z,13.40
2023-04-22T20:54:28.644Z,13.40
2023-04-22T20:59:01.008Z,13.40
2023-04-22T21:18:42.265Z,13.30
2023-04-22T21:23:48.842Z,13.30
2023-04-22T21:34:25.676Z,13.30
2023-04-22T21:39:18.646Z,13.30
2023-04-22T21:43:37.593Z,13.30
2023-04-22T21:57:51.505Z,13.30
2023-04-22T22:07:36.174Z,13.40
